SDM907 USSS-UWUU
Flight info
| Callsign | SDM907 |
|---|---|
| Flight time | N/A |
| Altitude | 38000 |
| Route | MIKUS6J MIKUS T764 IPROK IPROK2Z |
| Aircraft | A20N/M-SDE2E3FGHIRWXY/LB1 |
Departure
| Time | 2026-04-27 16:34 |
|---|---|
| Airport | Koltsovo Airport (USSS) |
Arrival
| Time | N/A |
|---|---|
| Airport | Ufa International Airport (UWUU) |
| Time | Latitude | Longitude | Altitude | Speed | Heading |
|---|---|---|---|---|---|
| 2026-04-27 16:02 | 56.74933 | 60.80045 | 751 ft | 0 kts | 360° |
| 2026-04-27 16:18 | 56.74921 | 60.80045 | 753 ft | 2 kts | 360° |
| 2026-04-27 16:19 | 56.74904 | 60.80045 | 750 ft | 3 kts | 360° |
| 2026-04-27 16:19 | 56.74880 | 60.80045 | 754 ft | 4 kts | 6° |
| 2026-04-27 16:20 | 56.74854 | 60.79987 | 753 ft | 0 kts | 89° |
| 2026-04-27 16:25 | 56.74854 | 60.80018 | 754 ft | 4 kts | 90° |
| 2026-04-27 16:25 | 56.74853 | 60.80198 | 757 ft | 10 kts | 89° |
| 2026-04-27 16:26 | 56.74853 | 60.80515 | 759 ft | 15 kts | 91° |
| 2026-04-27 16:26 | 56.74852 | 60.80941 | 761 ft | 19 kts | 89° |
| 2026-04-27 16:27 | 56.74868 | 60.81447 | 765 ft | 21 kts | 91° |
| 2026-04-27 16:27 | 56.74769 | 60.82167 | 769 ft | 18 kts | 130° |
| 2026-04-27 16:28 | 56.74604 | 60.82201 | 770 ft | 0 kts | 180° |
| 2026-04-27 16:29 | 56.74554 | 60.82200 | 770 ft | 7 kts | 180° |
| 2026-04-27 16:30 | 56.74439 | 60.82198 | 771 ft | 12 kts | 181° |
| 2026-04-27 16:30 | 56.74302 | 60.82180 | 769 ft | 2 kts | 185° |
| 2026-04-27 16:31 | 56.74250 | 60.82172 | 769 ft | 8 kts | 185° |
| 2026-04-27 16:31 | 56.74085 | 60.82151 | 766 ft | 16 kts | 189° |
| 2026-04-27 16:32 | 56.74066 | 60.82077 | 766 ft | 0 kts | 274° |
| 2026-04-27 16:33 | 56.74066 | 60.82073 | 766 ft | 2 kts | 274° |
| 2026-04-27 16:33 | 56.74081 | 60.81644 | 765 ft | 72 kts | 274° |
| 2026-04-27 16:33 | 56.74132 | 60.80337 | 753 ft | 132 kts | 274° |
| 2026-04-27 16:33 | 56.74223 | 60.78399 | 886 ft | 166 kts | 275° |
| 2026-04-27 16:34 | 56.74369 | 60.76277 | 1536 ft | 169 kts | 273° |
| 2026-04-27 16:34 | 56.74510 | 60.74148 | 2260 ft | 171 kts | 269° |
| 2026-04-27 16:34 | 56.74623 | 60.71939 | 2778 ft | 181 kts | 263° |
| 2026-04-27 16:34 | 56.74566 | 60.69533 | 3126 ft | 200 kts | 259° |
| 2026-04-27 16:35 | 56.74472 | 60.66873 | 3546 ft | 220 kts | 261° |
| 2026-04-27 16:35 | 56.74423 | 60.63954 | 4132 ft | 237 kts | 264° |
| 2026-04-27 16:35 | 56.74456 | 60.57608 | 5830 ft | 263 kts | 266° |
| 2026-04-27 16:36 | 56.74488 | 60.54266 | 6915 ft | 266 kts | 262° |
| 2026-04-27 16:36 | 56.74064 | 60.51031 | 7939 ft | 263 kts | 242° |
| 2026-04-27 16:36 | 56.73015 | 60.48340 | 8996 ft | 262 kts | 220° |
| 2026-04-27 16:36 | 56.71471 | 60.46567 | 10026 ft | 265 kts | 205° |
| 2026-04-27 16:37 | 56.69763 | 60.45075 | 10702 ft | 283 kts | 205° |
| 2026-04-27 16:37 | 56.67909 | 60.43470 | 11117 ft | 307 kts | 205° |
| 2026-04-27 16:37 | 56.65932 | 60.41752 | 11748 ft | 320 kts | 205° |
| 2026-04-27 16:37 | 56.63912 | 60.39989 | 12703 ft | 323 kts | 206° |
| 2026-04-27 16:38 | 56.61868 | 60.38201 | 13637 ft | 328 kts | 206° |
| 2026-04-27 16:38 | 56.59796 | 60.36388 | 14469 ft | 333 kts | 207° |
| 2026-04-27 16:38 | 56.57697 | 60.34552 | 15285 ft | 337 kts | 207° |
| 2026-04-27 16:38 | 56.55581 | 60.32703 | 16174 ft | 339 kts | 207° |
| 2026-04-27 16:39 | 56.53439 | 60.30832 | 16944 ft | 344 kts | 207° |
| 2026-04-27 16:39 | 56.51270 | 60.28940 | 17734 ft | 348 kts | 207° |
| 2026-04-27 16:39 | 56.49073 | 60.27027 | 18496 ft | 352 kts | 207° |
| 2026-04-27 16:39 | 56.46884 | 60.25125 | 19215 ft | 355 kts | 207° |
| 2026-04-27 16:40 | 56.44624 | 60.23164 | 19937 ft | 358 kts | 207° |
| 2026-04-27 16:40 | 56.42414 | 60.21184 | 20646 ft | 360 kts | 210° |
| 2026-04-27 16:40 | 56.40264 | 60.18729 | 21361 ft | 362 kts | 217° |
| 2026-04-27 16:40 | 56.38311 | 60.15836 | 22051 ft | 365 kts | 223° |
| 2026-04-27 16:41 | 56.36514 | 60.12672 | 22734 ft | 368 kts | 225° |
| 2026-04-27 16:41 | 56.34680 | 60.09431 | 23410 ft | 371 kts | 224° |
| 2026-04-27 16:41 | 56.32801 | 60.06214 | 23992 ft | 374 kts | 226° |
| 2026-04-27 16:41 | 56.30985 | 60.02836 | 24568 ft | 376 kts | 227° |
| 2026-04-27 16:42 | 56.29366 | 59.99124 | 25141 ft | 378 kts | 233° |
| 2026-04-27 16:42 | 56.27844 | 59.95258 | 25755 ft | 379 kts | 234° |
| 2026-04-27 16:42 | 56.26363 | 59.91314 | 26277 ft | 382 kts | 236° |
| 2026-04-27 16:42 | 56.24912 | 59.87276 | 26794 ft | 385 kts | 236° |
| 2026-04-27 16:43 | 56.23481 | 59.83189 | 27305 ft | 387 kts | 237° |
| 2026-04-27 16:43 | 56.22052 | 59.79068 | 27807 ft | 390 kts | 237° |
| 2026-04-27 16:43 | 56.20618 | 59.74926 | 28274 ft | 392 kts | 237° |
| 2026-04-27 16:43 | 56.19169 | 59.70751 | 28750 ft | 394 kts | 237° |
| 2026-04-27 16:44 | 56.17712 | 59.66560 | 29195 ft | 397 kts | 237° |
| 2026-04-27 16:44 | 56.16244 | 59.62350 | 29636 ft | 399 kts | 237° |
| 2026-04-27 16:44 | 56.14767 | 59.58122 | 30058 ft | 402 kts | 237° |
| 2026-04-27 16:44 | 56.13275 | 59.53859 | 30431 ft | 404 kts | 237° |
| 2026-04-27 16:45 | 56.11778 | 59.49590 | 30790 ft | 406 kts | 237° |
| 2026-04-27 16:45 | 56.10267 | 59.45289 | 31152 ft | 408 kts | 237° |
| 2026-04-27 16:45 | 56.08755 | 59.40992 | 31617 ft | 408 kts | 237° |
| 2026-04-27 16:45 | 56.07245 | 59.36709 | 31911 ft | 406 kts | 237° |
| 2026-04-27 16:46 | 56.05739 | 59.32446 | 32009 ft | 404 kts | 237° |
| 2026-04-27 16:46 | 56.02732 | 59.23954 | 32005 ft | 404 kts | 237° |
| 2026-04-27 16:47 | 55.99739 | 59.15529 | 32008 ft | 404 kts | 237° |
| 2026-04-27 16:47 | 55.96722 | 59.07063 | 32009 ft | 403 kts | 236° |
| 2026-04-27 16:48 | 55.93711 | 58.98645 | 32004 ft | 403 kts | 236° |
| 2026-04-27 16:48 | 55.90686 | 58.90223 | 31995 ft | 403 kts | 236° |
| 2026-04-27 16:49 | 55.86140 | 58.77617 | 31994 ft | 403 kts | 236° |
| 2026-04-27 16:49 | 55.83101 | 58.69225 | 31991 ft | 403 kts | 236° |
| 2026-04-27 16:50 | 55.80056 | 58.60850 | 31995 ft | 403 kts | 236° |
| 2026-04-27 16:50 | 55.77008 | 58.52492 | 31985 ft | 403 kts | 236° |
| 2026-04-27 16:51 | 55.73953 | 58.44143 | 31990 ft | 402 kts | 236° |
| 2026-04-27 16:51 | 55.70899 | 58.35825 | 31970 ft | 402 kts | 236° |
| 2026-04-27 16:52 | 55.67842 | 58.27527 | 31965 ft | 402 kts | 236° |
| 2026-04-27 16:52 | 55.64800 | 58.19299 | 31975 ft | 401 kts | 235° |
| 2026-04-27 16:53 | 55.61738 | 58.11036 | 31977 ft | 401 kts | 235° |
| 2026-04-27 16:53 | 55.58677 | 58.02812 | 31962 ft | 400 kts | 235° |
| 2026-04-27 16:54 | 55.55620 | 57.94611 | 31954 ft | 399 kts | 236° |
| 2026-04-27 16:54 | 55.52881 | 57.86063 | 31948 ft | 400 kts | 239° |
| 2026-04-27 16:55 | 55.50247 | 57.77427 | 31944 ft | 399 kts | 239° |
| 2026-04-27 16:55 | 55.48912 | 57.73143 | 31833 ft | 396 kts | 238° |
| 2026-04-27 16:55 | 55.47579 | 57.68904 | 31303 ft | 394 kts | 238° |
| 2026-04-27 16:56 | 55.46240 | 57.64678 | 30508 ft | 396 kts | 238° |